Time;durP1;ratioP1;P1;durP2;ratioP2;P2;SDS_P1;SDS_P2;PMS_P1;PMS_P2;Temp;Humidity;BMP_temperature;BMP_pressure;BME280_temperature;BME280_humidity;BME280_pressure;Samples;Min_cycle;Max_cycle;Signal;HPM_P1;HPM_P2
2022/09/05 00:02:33;;;;;;;2.35;1.00;;;;;;;13.74;55.33;101828.95;1790635;78;25783;-76
2022/09/05 00:05:49;;;;;;;1.52;0.85;;;;;;;13.71;55.36;101823.41;1802781;78;26398;-76
2022/09/05 00:09:07;;;;;;;2.42;0.93;;;;;;;13.70;55.50;101823.59;1808837;78;25874;-76
2022/09/05 00:11:57;;;;;;;1.25;0.80;;;;;;;13.69;55.60;101836.70;1803395;78;25939;-76
2022/09/05 00:15:24;;;;;;;0.95;0.70;;;;;;;13.69;55.62;101829.48;1810904;78;25726;-76
2022/09/05 00:19:04;;;;;;;2.17;1.17;;;;;;;13.66;55.57;101830.35;1817030;78;25726;-76
2022/09/05 00:22:17;;;;;;;1.62;0.88;;;;;;;13.64;55.67;101822.95;1804781;78;25521;-76
2022/09/05 00:25:17;;;;;;;2.22;0.98;;;;;;;13.62;55.85;101826.34;1808331;78;25287;-76
2022/09/05 00:28:16;;;;;;;2.65;0.90;;;;;;;13.60;55.79;101818.41;1814804;78;25730;-77
2022/09/05 00:31:09;;;;;;;1.65;1.00;;;;;;;13.56;55.81;101829.21;1806555;78;25742;-76
2022/09/05 00:34:34;;;;;;;0.95;0.80;;;;;;;13.52;55.78;101835.12;1805585;78;25730;-77
2022/09/05 00:37:39;;;;;;;3.17;0.90;;;;;;;13.48;55.90;101826.56;1789057;78;26078;-76
2022/09/05 00:40:38;;;;;;;2.05;0.80;;;;;;;13.44;56.01;101827.09;1790437;78;25823;-76
2022/09/05 00:43:28;;;;;;;1.35;0.80;;;;;;;13.38;56.03;101823.27;1797396;78;26440;-76
2022/09/05 00:46:24;;;;;;;3.37;1.10;;;;;;;13.31;56.21;101819.58;1804744;78;25961;-76
2022/09/05 00:49:41;;;;;;;1.42;1.10;;;;;;;13.25;56.23;101823.47;1779063;78;26378;-77
2022/09/05 00:52:56;;;;;;;1.47;0.80;;;;;;;13.17;56.32;101811.41;1807209;78;26413;-76
2022/09/05 00:56:04;;;;;;;4.15;0.90;;;;;;;13.12;56.52;101817.30;1792499;78;25912;-77
2022/09/05 00:59:03;;;;;;;1.80;0.80;;;;;;;13.07;56.46;101816.48;1815591;78;26246;-76
2022/09/05 01:02:27;;;;;;;1.60;1.02;;;;;;;13.04;56.66;101810.58;1807282;78;25919;-76
2022/09/05 01:05:34;;;;;;;3.15;0.88;;;;;;;13.02;56.71;101817.98;1818209;78;26362;-76
2022/09/05 01:08:33;;;;;;;2.15;1.20;;;;;;;12.95;56.77;101826.41;1818217;78;25730;-76
2022/09/05 01:11:45;;;;;;;1.40;0.72;;;;;;;12.90;56.93;101824.23;1793735;78;25430;-76
2022/09/05 01:15:15;;;;;;;3.35;0.90;;;;;;;12.86;57.06;101820.20;1815485;78;25734;-77
2022/09/05 01:18:08;;;;;;;1.42;0.90;;;;;;;12.82;57.26;101826.09;1808345;78;25772;-78
2022/09/05 01:21:21;;;;;;;0.90;0.72;;;;;;;12.74;57.37;101827.47;1798715;78;26359;-78
2022/09/05 01:24:25;;;;;;;1.37;1.00;;;;;;;12.68;57.37;101830.31;1798283;78;26382;-77
2022/09/05 01:27:52;;;;;;;2.42;0.80;;;;;;;12.61;57.48;101827.99;1805612;78;26306;-77
2022/09/05 01:30:48;;;;;;;2.08;1.27;;;;;;;12.56;57.72;101833.03;1804096;78;26040;-78
2022/09/05 01:33:50;;;;;;;2.25;1.07;;;;;;;12.50;57.88;101835.55;1802614;78;25955;-77
2022/09/05 01:36:52;;;;;;;1.50;0.80;;;;;;;12.41;58.17;101836.06;1791573;78;25941;-77
2022/09/05 01:40:08;;;;;;;2.37;0.82;;;;;;;12.32;58.31;101837.06;1802038;78;25739;-78
2022/09/05 01:43:32;;;;;;;5.65;1.12;;;;;;;12.24;58.44;101842.44;1804913;78;25762;-77
2022/09/05 01:46:40;;;;;;;2.12;1.20;;;;;;;12.16;58.53;101843.29;1796790;78;26364;-77
2022/09/05 01:49:43;;;;;;;1.85;1.07;;;;;;;12.07;58.73;101837.56;1809742;78;25752;-76
2022/09/05 01:52:53;;;;;;;1.92;0.90;;;;;;;12.00;58.98;101840.57;1800229;78;25884;-77
2022/09/05 01:56:00;;;;;;;2.45;0.90;;;;;;;11.93;59.16;101837.39;1802112;78;25764;-77
2022/09/05 01:58:56;;;;;;;2.55;1.10;;;;;;;11.88;59.22;101841.91;1804953;78;25242;-77
2022/09/05 02:01:55;;;;;;;3.55;1.10;;;;;;;11.84;59.31;101835.68;1809299;78;25866;-76
2022/09/05 02:05:16;;;;;;;1.72;0.90;;;;;;;11.81;59.41;101840.03;1800842;78;25783;-77
2022/09/05 02:08:40;;;;;;;2.45;1.52;;;;;;;11.76;59.43;101838.36;1811491;78;25724;-76
2022/09/05 02:11:50;;;;;;;0.95;0.90;;;;;;;11.69;59.60;101839.52;1806901;78;25834;-76
2022/09/05 02:15:00;;;;;;;1.30;0.85;;;;;;;11.60;59.72;101838.62;1806941;78;25873;-78
2022/09/05 02:17:50;;;;;;;1.45;1.00;;;;;;;11.53;59.81;101842.95;1792469;78;25692;-78
2022/09/05 02:20:43;;;;;;;3.98;1.62;;;;;;;11.47;60.42;101844.95;1807630;78;25748;-78
2022/09/05 02:23:43;;;;;;;1.10;0.80;;;;;;;11.41;60.72;101846.09;1808947;78;25701;-77
2022/09/05 02:26:37;;;;;;;5.87;1.35;;;;;;;11.32;60.77;101850.58;1797092;78;25927;-78
2022/09/05 02:30:04;;;;;;;2.33;0.80;;;;;;;11.23;60.94;101850.20;1815984;78;25842;-78
2022/09/05 02:33:16;;;;;;;2.15;1.10;;;;;;;11.14;60.92;101848.47;1803865;78;26373;-78
2022/09/05 02:36:41;;;;;;;3.67;1.37;;;;;;;11.08;61.53;101848.27;1806033;78;26403;-78
2022/09/05 02:39:39;;;;;;;3.90;1.10;;;;;;;11.03;61.77;101850.61;1788835;78;25770;-77
2022/09/05 02:42:33;;;;;;;2.08;1.35;;;;;;;10.92;61.84;101849.04;1774134;78;25733;-77
2022/09/05 02:45:56;;;;;;;1.42;1.00;;;;;;;10.81;61.98;101847.47;1797048;78;25921;-77
2022/09/05 02:48:59;;;;;;;2.08;1.20;;;;;;;10.73;62.21;101844.71;1792212;78;27554;-78
2022/09/05 02:52:01;;;;;;;2.45;1.02;;;;;;;10.62;62.40;101850.36;1793480;78;26361;-78
2022/09/05 02:54:49;;;;;;;1.27;0.98;;;;;;;10.55;62.92;101849.78;1804793;78;25829;-77
2022/09/05 02:58:00;;;;;;;1.00;0.80;;;;;;;10.48;63.01;101850.05;1791808;78;25855;-78
2022/09/05 03:00:52;;;;;;;1.12;1.02;;;;;;;10.43;63.18;101849.70;1792165;78;25815;-78
2022/09/05 03:03:45;;;;;;;1.20;1.00;;;;;;;10.35;63.17;101846.44;1789560;79;25755;-77
2022/09/05 03:06:53;;;;;;;1.45;1.10;;;;;;;10.27;63.35;101844.19;1762033;81;25822;-78
2022/09/05 03:10:16;;;;;;;2.50;1.00;;;;;;;10.17;63.43;101855.00;1733358;81;25674;-78
2022/09/05 03:13:50;;;;;;;3.37;0.98;;;;;;;10.08;63.50;101854.54;1670551;83;25886;-78
2022/09/05 03:17:06;;;;;;;2.92;0.70;;;;;;;9.99;63.67;101855.45;1687988;83;25889;-78
2022/09/05 03:20:23;;;;;;;1.75;1.20;;;;;;;9.91;63.81;101858.05;1765162;79;25814;-78
2022/09/05 03:23:37;;;;;;;1.82;0.90;;;;;;;9.82;63.91;101857.61;1729542;79;25778;-78
2022/09/05 03:27:02;;;;;;;1.45;1.10;;;;;;;9.75;64.18;101857.89;1754887;80;25707;-77
2022/09/05 03:30:14;;;;;;;1.32;1.00;;;;;;;9.67;64.13;101861.30;1779723;79;25869;-77
2022/09/05 03:33:35;;;;;;;1.07;0.98;;;;;;;9.60;64.46;101863.41;1765223;79;26094;-76
2022/09/05 03:36:33;;;;;;;;;;;;;;;9.54;64.48;101864.83;1778927;80;25763;-77
2022/09/05 03:39:47;;;;;;;1.98;1.20;;;;;;;9.43;64.53;101864.20;1741300;81;26486;-78
2022/09/05 03:42:41;;;;;;;1.47;1.10;;;;;;;9.34;64.62;101853.91;1743128;81;25835;-77
2022/09/05 03:45:46;;;;;;;0.88;0.88;;;;;;;9.27;64.80;101864.83;1766858;79;25772;-77
2022/09/05 03:49:07;;;;;;;1.77;1.00;;;;;;;9.21;64.90;101865.43;1760592;79;25723;-78
2022/09/05 03:52:30;;;;;;;3.08;1.10;;;;;;;9.18;65.13;101867.89;1766586;79;27618;-78
2022/09/05 03:55:20;;;;;;;3.00;1.02;;;;;;;9.13;65.16;101870.67;1766819;79;25818;-78
2022/09/05 03:58:14;;;;;;;2.02;1.02;;;;;;;9.11;65.44;101875.33;1766549;79;25748;-78
2022/09/05 04:01:18;;;;;;;1.80;0.90;;;;;;;9.05;65.66;101874.06;1797099;78;25822;-79
2022/09/05 04:04:28;;;;;;;0.93;0.80;;;;;;;8.98;65.42;101876.14;1797987;78;25772;-78
2022/09/05 04:07:27;;;;;;;1.30;0.70;;;;;;;8.90;65.44;101877.34;1799201;78;25942;-77
2022/09/05 04:10:33;;;;;;;1.40;0.90;;;;;;;8.89;65.96;101883.68;1798598;78;25826;-77
2022/09/05 04:13:26;;;;;;;5.42;1.00;;;;;;;8.88;66.11;101887.33;1798991;78;25508;-78
2022/09/05 04:16:16;;;;;;;1.90;1.17;;;;;;;8.87;66.48;101891.00;1796045;78;25816;-77
2022/09/05 04:19:31;;;;;;;1.07;0.90;;;;;;;8.89;66.75;101891.70;1798421;78;26410;-78
2022/09/05 04:23:04;;;;;;;1.60;1.05;;;;;;;8.88;66.80;101890.84;1800046;78;27762;-78
2022/09/05 04:26:17;;;;;;;1.27;1.17;;;;;;;8.87;66.92;101898.53;1797749;78;26343;-76
2022/09/05 04:29:27;;;;;;;2.45;1.20;;;;;;;8.81;67.13;101902.27;1783340;78;25879;-77
2022/09/05 04:32:31;;;;;;;1.45;1.35;;;;;;;8.77;67.29;101906.22;1798995;78;25951;-78
2022/09/05 04:36:02;;;;;;;1.80;1.30;;;;;;;8.76;67.63;101902.70;1797828;78;26023;-78
2022/09/05 04:39:21;;;;;;;2.72;1.07;;;;;;;8.77;67.79;101905.70;1799396;78;25856;-77
2022/09/05 04:42:22;;;;;;;4.28;1.22;;;;;;;8.78;68.23;101903.88;1778215;78;25914;-77
2022/09/05 04:45:11;;;;;;;3.92;1.00;;;;;;;8.77;68.64;101906.22;1799693;78;25776;-77
2022/09/05 04:48:00;;;;;;;2.95;1.07;;;;;;;8.78;68.74;101906.06;1797635;78;26330;-77
2022/09/05 05:07:24;;;;;;;2.83;1.25;;;;;;;9.53;69.00;101915.81;1788204;79;25759;-77
2022/09/05 05:10:17;;;;;;;1.98;1.20;;;;;;;9.44;69.33;101922.88;1753404;81;25756;-78
2022/09/05 05:13:24;;;;;;;3.35;1.02;;;;;;;9.40;69.64;101925.51;1754045;81;25806;-78
2022/09/05 05:16:17;;;;;;;2.77;1.98;;;;;;;9.40;69.99;101921.50;1751617;80;25794;-78
2022/09/05 05:19:43;;;;;;;3.47;1.20;;;;;;;9.44;70.17;101925.56;1755553;80;26056;-78
2022/09/05 05:22:28;;;;;;;2.65;1.62;;;;;;;9.49;70.43;101921.11;1743754;81;25858;-78
2022/09/05 05:25:12;;;;;;;3.17;1.40;;;;;;;9.56;70.53;101926.22;1753751;81;25889;-79
2022/09/05 05:28:13;;;;;;;1.80;1.40;;;;;;;9.64;70.55;101928.99;1756043;81;25903;-78
2022/09/05 05:31:09;;;;;;;1.52;1.25;;;;;;;9.71;70.64;101933.59;1747242;81;25872;-77
2022/09/05 05:33:58;;;;;;;2.98;1.35;;;;;;;9.81;70.70;101926.86;1748283;81;25885;-77
2022/09/05 05:36:55;;;;;;;5.55;1.30;;;;;;;9.87;70.65;101924.92;1743929;81;25827;-78
2022/09/05 05:39:44;;;;;;;5.75;1.70;;;;;;;9.95;70.87;101935.71;1748453;81;25807;-78
2022/09/05 05:42:29;;;;;;;3.00;1.40;;;;;;;10.04;70.73;101937.49;1753413;81;25852;-78
2022/09/05 05:45:30;;;;;;;1.32;1.17;;;;;;;10.12;70.62;101937.61;1753874;80;25774;-78
2022/09/05 05:48:29;;;;;;;1.70;1.60;;;;;;;10.24;70.72;101935.56;1735493;81;25749;-78
2022/09/05 05:51:44;;;;;;;4.50;1.50;;;;;;;10.36;70.76;101941.87;1756244;80;25884;-78
2022/09/05 05:54:52;;;;;;;3.27;1.42;;;;;;;10.47;70.69;101944.33;1755154;80;25699;-78
2022/09/05 05:58:21;;;;;;;2.67;1.30;;;;;;;10.60;70.51;101946.62;1744401;81;25821;-78
2022/09/05 06:01:47;;;;;;;1.98;1.20;;;;;;;10.74;70.50;101950.08;1753372;80;26005;-78
2022/09/05 06:05:30;;;;;;;1.62;1.22;;;;;;;10.89;70.14;101953.89;1754544;81;25765;-79
2022/09/05 06:08:55;;;;;;;2.95;1.60;;;;;;;11.04;70.16;101954.16;1754912;80;25703;-78
2022/09/05 06:12:05;;;;;;;5.17;1.70;;;;;;;11.22;70.16;101961.67;1746011;80;25825;-78
2022/09/05 06:15:23;;;;;;;2.60;1.07;;;;;;;11.37;69.58;101958.75;1737084;81;25712;-77
2022/09/05 06:18:29;;;;;;;3.85;1.60;;;;;;;11.51;69.48;101963.02;1751429;81;25736;-77
2022/09/05 06:21:50;;;;;;;4.47;1.52;;;;;;;11.66;69.12;101963.26;1748219;80;26502;-78
2022/09/05 06:24:45;;;;;;;1.42;1.17;;;;;;;11.79;68.58;101962.84;1744730;81;25801;-78
2022/09/05 06:27:37;;;;;;;4.33;1.52;;;;;;;11.92;68.48;101961.39;1748738;81;25833;-78
2022/09/05 06:30:24;;;;;;;2.33;1.22;;;;;;;12.06;68.16;101960.76;1752502;81;25779;-78
2022/09/05 06:33:40;;;;;;;3.15;1.60;;;;;;;12.19;67.86;101961.63;1754913;80;25726;-78
2022/09/05 06:36:48;;;;;;;4.65;1.40;;;;;;;12.32;67.96;101966.88;1751944;81;25825;-78
2022/09/05 06:39:57;;;;;;;3.52;1.40;;;;;;;12.47;67.19;101959.00;1731624;81;26034;-78
2022/09/05 06:43:07;;;;;;;3.60;1.42;;;;;;;12.61;66.95;101962.89;1739216;80;25867;-78
2022/09/05 06:46:29;;;;;;;1.52;1.20;;;;;;;12.75;66.77;101966.25;1749872;80;26047;-78
2022/09/05 06:49:26;;;;;;;4.20;1.32;;;;;;;12.89;66.70;101969.13;1750379;81;25728;-78
2022/09/05 06:52:55;;;;;;;2.33;1.30;;;;;;;13.04;66.81;101971.48;1743241;81;25836;-78
2022/09/05 06:56:04;;;;;;;1.45;1.30;;;;;;;13.18;66.30;101975.34;1745326;81;25807;-78
2022/09/05 06:59:18;;;;;;;3.35;1.47;;;;;;;13.35;66.61;101976.15;1690677;83;26273;-78
2022/09/05 07:02:37;;;;;;;2.50;1.47;;;;;;;13.51;66.60;101984.20;1699813;83;25709;-78
2022/09/05 07:05:55;;;;;;;6.05;1.82;;;;;;;13.66;65.55;101979.29;1689444;83;25884;-78
2022/09/05 07:09:24;;;;;;;5.03;1.98;;;;;;;13.83;65.35;101983.61;1704935;83;25930;-78
2022/09/05 07:12:25;;;;;;;4.37;2.05;;;;;;;14.00;65.06;101986.22;1714421;81;25775;-77
2022/09/05 07:15:38;;;;;;;5.05;1.92;;;;;;;14.14;64.65;101993.05;1710821;83;25848;-77
2022/09/05 07:18:38;;;;;;;6.05;1.98;;;;;;;14.26;64.29;101988.95;1696297;83;26801;-77
2022/09/05 07:21:36;;;;;;;6.83;2.27;;;;;;;14.40;63.94;101987.38;1707089;83;25963;-78
2022/09/05 07:24:26;;;;;;;8.63;2.37;;;;;;;14.50;63.99;101987.47;1709264;83;26492;-78
2022/09/05 07:27:28;;;;;;;4.70;1.80;;;;;;;14.62;63.80;101984.72;1707077;82;26217;-78
2022/09/05 07:30:17;;;;;;;6.60;1.50;;;;;;;14.73;62.52;101987.50;1707190;83;26508;-77
2022/09/05 07:33:03;;;;;;;4.58;1.60;;;;;;;14.80;62.08;101987.08;1714924;82;26444;-78
2022/09/05 07:35:50;;;;;;;5.22;1.85;;;;;;;14.91;61.48;101984.47;1696071;82;25900;-79
2022/09/05 07:38:37;;;;;;;2.27;1.12;;;;;;;15.01;60.96;101991.83;1712145;82;25829;-78
2022/09/05 07:41:38;;;;;;;3.08;1.32;;;;;;;15.11;60.77;101986.50;1708828;83;25732;-79
2022/09/05 07:44:29;;;;;;;3.55;1.15;;;;;;;15.24;60.50;101988.57;1707324;83;25852;-77
2022/09/05 07:47:31;;;;;;;5.78;0.93;;;;;;;15.38;60.47;101983.69;1712907;83;27596;-77
2022/09/05 07:50:17;;;;;;;3.10;1.10;;;;;;;15.50;59.72;101984.12;1711935;83;25859;-79
2022/09/05 07:53:05;;;;;;;7.05;1.72;;;;;;;15.59;59.40;101984.37;1710559;83;25718;-79
2022/09/05 07:55:59;;;;;;;6.62;1.92;;;;;;;15.67;59.42;101981.06;1702770;83;25791;-79
2022/09/05 07:58:49;;;;;;;4.30;1.22;;;;;;;15.74;58.77;101984.67;1702026;83;25817;-78
2022/09/05 08:01:37;;;;;;;2.20;1.05;;;;;;;15.84;58.65;101991.16;1696150;83;25722;-79
2022/09/05 08:04:35;;;;;;;3.62;1.07;;;;;;;15.92;59.05;101986.49;1708474;82;25928;-79
2022/09/05 08:10:38;;;;;;;2.75;0.78;;;;;;;16.09;57.73;101983.06;1687184;81;26108;-76
2022/09/05 08:13:44;;;;;;;7.33;1.40;;;;;;;16.14;57.77;101988.20;1688985;83;25792;-76
2022/09/05 08:16:33;;;;;;;1.07;0.68;;;;;;;16.23;57.68;101992.99;1691035;84;25794;-78
2022/09/05 08:19:41;;;;;;;1.50;0.60;;;;;;;16.35;56.70;101990.65;1684061;84;25919;-78
2022/09/05 08:22:30;;;;;;;0.85;0.55;;;;;;;16.42;56.04;101989.70;1692391;83;25961;-78
2022/09/05 08:25:21;;;;;;;2.90;0.75;;;;;;;16.51;55.59;101995.33;1686613;84;25768;-78
2022/09/05 08:28:18;;;;;;;0.93;0.55;;;;;;;16.59;55.51;101992.53;1688687;84;25764;-78
2022/09/05 08:31:09;;;;;;;2.52;0.60;;;;;;;16.70;55.14;101988.47;1686742;84;25765;-78
2022/09/05 08:33:59;;;;;;;3.50;0.68;;;;;;;16.79;55.00;101989.48;1688493;83;25826;-78
2022/09/05 08:36:52;;;;;;;0.98;0.55;;;;;;;16.87;53.72;101985.29;1686737;84;25799;-78
2022/09/05 08:39:39;;;;;;;1.27;0.65;;;;;;;16.93;53.58;101991.30;1669778;84;25807;-78
2022/09/05 08:43:04;;;;;;;2.47;0.57;;;;;;;17.02;53.76;101989.30;1694262;84;25904;-78
2022/09/05 08:45:57;;;;;;;2.35;0.60;;;;;;;17.10;52.97;101979.67;1678523;84;25854;-78
2022/09/05 08:48:56;;;;;;;1.47;0.60;;;;;;;17.17;52.12;101983.25;1691991;84;25966;-78
2022/09/05 08:52:05;;;;;;;0.78;0.50;;;;;;;17.26;51.71;101979.88;1696791;83;25319;-78
2022/09/05 08:55:19;;;;;;;1.17;0.50;;;;;;;17.34;52.26;101971.63;1670816;84;25678;-79
2022/09/05 08:58:36;;;;;;;2.00;0.30;;;;;;;17.45;52.40;101980.03;1596665;88;25654;-78
2022/09/05 09:01:37;;;;;;;0.65;0.30;;;;;;;17.57;50.62;101969.02;1609382;87;27615;-79
2022/09/05 09:05:08;;;;;;;0.90;0.40;;;;;;;17.67;50.59;101969.48;1686816;84;25819;-77
2022/09/05 09:08:13;;;;;;;1.47;0.70;;;;;;;17.76;48.75;101964.73;1677281;84;26403;-78
2022/09/05 09:11:03;;;;;;;0.80;0.35;;;;;;;17.84;48.98;101961.00;1643311;85;25865;-78
2022/09/05 09:14:16;;;;;;;0.20;0.20;;;;;;;17.95;49.45;101949.59;1683877;84;26332;-78
2022/09/05 09:17:42;;;;;;;1.17;0.55;;;;;;;18.04;48.10;101948.37;1677770;82;27569;-79
2022/09/05 09:20:36;;;;;;;0.72;0.47;;;;;;;18.10;47.14;101947.56;1683325;84;25803;-77
2022/09/05 09:23:49;;;;;;;1.27;0.80;;;;;;;18.17;47.88;101943.85;1687120;84;26528;-77
2022/09/05 09:26:41;;;;;;;1.77;0.20;;;;;;;18.24;46.60;101934.38;1691095;82;25817;-78
2022/09/05 09:29:28;;;;;;;0.95;0.33;;;;;;;18.32;45.92;101935.02;1686345;84;26039;-77
2022/09/05 09:32:23;;;;;;;0.30;0.30;;;;;;;18.35;45.81;101930.53;1692027;84;26202;-78
2022/09/05 09:35:28;;;;;;;1.52;0.25;;;;;;;18.38;45.52;101931.48;1684790;84;25751;-77
2022/09/05 09:38:40;;;;;;;0.70;0.30;;;;;;;18.40;45.23;101928.56;1681599;84;25874;-78
2022/09/05 09:41:47;;;;;;;0.62;0.35;;;;;;;18.43;45.05;101925.45;1686777;84;25792;-78
2022/09/05 09:44:55;;;;;;;0.30;0.30;;;;;;;18.46;44.86;101925.05;1684445;82;25829;-78
2022/09/05 09:47:52;;;;;;;0.40;0.30;;;;;;;18.52;44.22;101922.05;1686598;84;25917;-78
2022/09/05 09:51:10;;;;;;;0.50;0.40;;;;;;;18.54;43.75;101919.97;1692866;84;26328;-78
2022/09/05 09:54:21;;;;;;;0.40;0.30;;;;;;;18.58;44.28;101924.77;1688751;82;25794;-79
2022/09/05 09:57:56;;;;;;;1.00;0.30;;;;;;;18.65;43.48;101922.06;1681090;84;25882;-77
2022/09/05 10:01:05;;;;;;;0.95;0.20;;;;;;;18.66;43.60;101915.58;1685846;84;25776;-78
2022/09/05 10:04:05;;;;;;;0.53;0.40;;;;;;;18.71;43.50;101922.59;1675311;84;27534;-78
2022/09/05 10:07:18;;;;;;;0.40;0.30;;;;;;;18.75;43.08;101918.41;1683176;84;25806;-77
2022/09/05 10:10:20;;;;;;;0.37;0.20;;;;;;;18.81;43.31;101924.36;1662944;82;26152;-78
2022/09/05 10:13:12;;;;;;;0.90;0.40;;;;;;;18.86;42.82;101915.89;1693617;82;25825;-77
2022/09/05 10:16:46;;;;;;;0.10;0.10;;;;;;;18.95;42.78;101916.52;1690494;82;25934;-77
2022/09/05 10:19:39;;;;;;;0.60;0.30;;;;;;;18.96;42.07;101914.13;1688854;84;25920;-78
2022/09/05 10:22:58;;;;;;;0.10;0.10;;;;;;;19.02;42.42;101909.20;1692900;84;25782;-77
2022/09/05 10:26:11;;;;;;;1.77;0.30;;;;;;;19.05;42.06;101901.46;1685398;82;25313;-78
2022/09/05 10:29:12;;;;;;;0.35;0.30;;;;;;;19.06;42.05;101896.36;1689655;82;25842;-78
2022/09/05 10:32:07;;;;;;;1.57;0.30;;;;;;;19.15;42.95;101899.17;1680188;82;25929;-78
2022/09/05 10:35:06;;;;;;;1.00;0.30;;;;;;;19.26;43.24;101900.41;1679715;84;25824;-78
2022/09/05 10:38:11;;;;;;;1.85;0.62;;;;;;;19.36;43.04;101891.31;1680733;82;25797;-78
2022/09/05 10:41:09;;;;;;;2.95;0.50;;;;;;;19.41;42.23;101890.68;1693679;78;25966;-76
2022/09/05 10:44:01;;;;;;;0.70;0.42;;;;;;;19.49;42.77;101897.23;1643233;84;25794;-77
2022/09/05 10:47:03;;;;;;;0.30;0.30;;;;;;;19.55;42.89;101889.06;1665892;84;25847;-78
2022/09/05 10:50:13;;;;;;;0.23;0.20;;;;;;;19.62;42.78;101880.88;1663181;84;33527;-78
2022/09/05 10:53:42;;;;;;;0.85;0.40;;;;;;;19.65;42.51;101883.19;1664331;84;25635;-77
2022/09/05 10:56:47;;;;;;;0.85;0.50;;;;;;;19.63;41.70;101888.00;1669885;84;25771;-78
2022/09/05 10:59:46;;;;;;;0.30;0.30;;;;;;;19.62;41.92;101876.80;1731817;81;25914;-78
2022/09/05 11:02:35;;;;;;;1.60;0.30;;;;;;;19.65;41.31;101880.47;1631347;83;26721;-78
2022/09/05 11:05:32;;;;;;;0.88;0.50;;;;;;;19.67;41.62;101880.56;1731864;81;25782;-78
2022/09/05 11:08:40;;;;;;;5.30;0.40;;;;;;;19.71;40.82;101879.60;1694853;83;25840;-78
2022/09/05 11:11:26;;;;;;;0.20;0.20;;;;;;;19.73;40.87;101877.50;1721060;81;25800;-78
2022/09/05 11:14:22;;;;;;;0.30;0.30;;;;;;;19.75;41.16;101878.95;1738817;81;25862;-78
2022/09/05 11:17:44;;;;;;;1.07;0.20;;;;;;;19.80;40.76;101875.05;1682489;81;25911;-78
2022/09/05 11:21:03;;;;;;;1.90;0.65;;;;;;;19.84;40.13;101864.59;1715619;81;25907;-78
2022/09/05 11:23:55;;;;;;;0.30;0.30;;;;;;;19.88;40.88;101868.54;1717242;81;25918;-77
2022/09/05 11:26:51;;;;;;;0.30;0.30;;;;;;;19.98;40.88;101868.38;1729579;81;26382;-77
2022/09/05 11:29:52;;;;;;;1.82;0.30;;;;;;;20.05;41.06;101862.06;1724097;81;25740;-77
2022/09/05 11:32:57;;;;;;;0.35;0.30;;;;;;;20.11;41.04;101861.18;1727256;81;25825;-78
2022/09/05 11:35:48;;;;;;;0.70;0.30;;;;;;;20.10;39.99;101854.92;1719305;81;27803;-78
2022/09/05 11:38:59;;;;;;;0.68;0.20;;;;;;;20.08;40.16;101863.80;1716976;81;25813;-77
2022/09/05 11:42:07;;;;;;;1.05;0.40;;;;;;;20.10;40.14;101853.57;1719850;81;25753;-77
2022/09/05 11:45:26;;;;;;;1.20;0.30;;;;;;;20.16;40.36;101854.56;1726883;81;25864;-78
2022/09/05 11:48:43;;;;;;;2.08;0.40;;;;;;;20.16;40.31;101851.33;1725777;81;25902;-78
2022/09/05 11:51:56;;;;;;;1.65;0.25;;;;;;;20.26;40.95;101851.70;1715242;81;27585;-78
2022/09/05 11:55:24;;;;;;;0.30;0.28;;;;;;;20.29;40.37;101849.07;1724472;81;25832;-78
2022/09/05 11:58:39;;;;;;;1.30;0.80;;;;;;;20.34;40.92;101852.78;1733744;81;25776;-77
2022/09/05 12:02:02;;;;;;;0.85;0.40;;;;;;;20.46;40.62;101852.40;1712586;81;25779;-78
2022/09/05 12:05:27;;;;;;;0.70;0.37;;;;;;;20.55;40.63;101851.59;1723066;81;25734;-77
2022/09/05 12:08:30;;;;;;;0.72;0.25;;;;;;;20.55;40.37;101846.97;1715474;81;27489;-77
2022/09/05 12:12:00;;;;;;;0.68;0.37;;;;;;;20.60;39.96;101840.34;1700640;81;25850;-78
2022/09/05 12:15:25;;;;;;;2.70;0.43;;;;;;;20.64;39.78;101834.75;1697622;81;25851;-78
2022/09/05 12:18:34;;;;;;;0.42;0.30;;;;;;;20.64;39.21;101836.11;1722450;81;25865;-78
2022/09/05 12:21:42;;;;;;;0.82;0.40;;;;;;;20.71;39.27;101830.61;1728701;81;25289;-78
2022/09/05 12:24:32;;;;;;;2.50;0.40;;;;;;;20.76;39.48;101826.14;1705364;81;25902;-79
2022/09/05 12:27:20;;;;;;;1.77;0.30;;;;;;;20.86;39.89;101824.80;1721020;81;25753;-78
2022/09/05 12:30:10;;;;;;;2.02;0.37;;;;;;;21.00;39.27;101820.35;1692063;81;25897;-78
2022/09/05 12:33:10;;;;;;;0.33;0.30;;;;;;;21.12;39.36;101818.59;1716920;81;25821;-79
2022/09/05 12:36:11;;;;;;;0.37;0.10;;;;;;;21.26;39.71;101810.56;1731062;81;25852;-77
2022/09/05 12:39:08;;;;;;;0.30;0.20;;;;;;;21.38;39.67;101812.01;1714737;81;25800;-78
2022/09/05 12:42:21;;;;;;;0.80;0.30;;;;;;;21.42;39.29;101807.76;1721496;81;25751;-77
2022/09/05 12:45:20;;;;;;;0.65;0.30;;;;;;;21.38;39.44;101807.92;1730129;81;25800;-78
2022/09/05 12:48:16;;;;;;;0.78;0.40;;;;;;;21.27;38.99;101801.34;1736137;81;25780;-78
2022/09/05 12:51:08;;;;;;;2.40;0.47;;;;;;;21.15;38.52;101800.97;1707496;81;25942;-78
2022/09/05 12:54:12;;;;;;;0.90;0.40;;;;;;;21.07;38.90;101814.87;1727042;81;26119;-78
2022/09/05 12:57:27;;;;;;;0.30;0.30;;;;;;;20.95;39.25;101806.59;1723663;81;25936;-78
2022/09/05 13:00:17;;;;;;;3.27;0.50;;;;;;;20.91;39.17;101805.38;1714999;81;25929;-78
2022/09/05 13:03:04;;;;;;;2.53;0.40;;;;;;;20.91;37.99;101799.09;1718544;81;25765;-78
2022/09/05 13:06:11;;;;;;;0.80;0.33;;;;;;;20.91;38.18;101799.94;1719891;81;25847;-78
2022/09/05 13:09:15;;;;;;;0.90;0.40;;;;;;;20.93;38.48;101803.27;1729199;81;27614;-78
2022/09/05 13:12:28;;;;;;;3.00;0.35;;;;;;;20.99;38.54;101798.80;1721462;81;25790;-78
2022/09/05 13:15:25;;;;;;;2.15;0.33;;;;;;;21.11;38.77;101790.20;1721963;81;25837;-78
2022/09/05 13:18:25;;;;;;;4.60;0.60;;;;;;;21.25;38.66;101787.63;1713036;81;26617;-78
2022/09/05 13:21:20;;;;;;;0.50;0.30;;;;;;;21.36;39.04;101783.59;1731075;81;25870;-78
2022/09/05 13:24:13;;;;;;;1.82;0.40;;;;;;;21.39;37.79;101771.41;1718551;80;25821;-78
2022/09/05 13:27:12;;;;;;;0.50;0.37;;;;;;;21.39;37.87;101762.70;1719423;81;25566;-78
2022/09/05 13:30:01;;;;;;;1.42;0.30;;;;;;;21.47;38.22;101768.36;1711595;81;25802;-78
2022/09/05 13:32:52;;;;;;;1.27;0.40;;;;;;;21.53;37.98;101772.36;1734409;81;26766;-78
2022/09/05 13:35:51;;;;;;;3.17;0.30;;;;;;;21.50;37.40;101773.36;1729424;81;25331;-78
2022/09/05 13:39:01;;;;;;;0.80;0.40;;;;;;;21.47;37.73;101770.55;1728575;81;26065;-78
2022/09/05 13:41:51;;;;;;;0.45;0.28;;;;;;;21.45;37.27;101771.32;1722736;81;32998;-78
2022/09/05 13:44:45;;;;;;;5.28;0.30;;;;;;;21.45;36.59;101771.32;1722280;81;25824;-78
2022/09/05 13:48:01;;;;;;;1.35;0.40;;;;;;;21.41;36.67;101761.94;1717296;81;25916;-78
2022/09/05 13:50:53;;;;;;;1.12;0.57;;;;;;;21.42;37.57;101756.80;1715675;81;25807;-78
2022/09/05 13:53:50;;;;;;;1.37;0.40;;;;;;;21.58;37.42;101768.14;1727701;81;26488;-78
2022/09/05 13:56:32;;;;;;;2.15;0.40;;;;;;;21.72;37.39;101755.97;1730513;81;25904;-77
2022/09/05 13:59:23;;;;;;;2.62;0.35;;;;;;;21.79;37.13;101757.52;1721139;81;25678;-77
2022/09/05 14:02:37;;;;;;;0.95;0.53;;;;;;;21.86;37.26;101758.81;1727876;81;33129;-77
2022/09/05 14:05:33;;;;;;;1.70;0.40;;;;;;;21.90;37.04;101761.38;1719053;81;26440;-76
2022/09/05 14:08:46;;;;;;;0.42;0.20;;;;;;;21.83;36.26;101760.66;1726946;81;25766;-77
2022/09/05 14:12:05;;;;;;;1.25;0.50;;;;;;;21.79;36.75;101758.08;1727125;81;25773;-77
2022/09/05 14:14:58;;;;;;;2.95;0.50;;;;;;;21.91;37.17;101758.44;1724274;81;25798;-78
2022/09/05 14:18:06;;;;;;;0.93;0.30;;;;;;;21.97;36.77;101753.41;1721878;81;25841;-78
2022/09/05 14:21:17;;;;;;;1.60;0.40;;;;;;;22.03;36.96;101751.63;1738377;81;25855;-77
2022/09/05 14:24:20;;;;;;;1.07;0.43;;;;;;;22.08;36.64;101751.77;1730538;81;27606;-78
2022/09/05 14:27:16;;;;;;;0.53;0.33;;;;;;;22.18;37.03;101739.20;1714095;81;25985;-78
2022/09/05 14:29:53;;;;;;;2.22;0.40;;;;;;;22.19;36.47;101744.97;1677681;83;26328;-77
2022/09/05 14:32:38;;;;;;;1.12;0.33;;;;;;;22.12;36.30;101744.24;1673322;83;25849;-77
2022/09/05 14:35:34;;;;;;;2.10;0.60;;;;;;;22.01;36.28;101742.84;1711801;81;25846;-78
2022/09/05 14:38:23;;;;;;;4.20;0.50;;;;;;;21.93;36.41;101739.94;1721352;81;27472;-77
2022/09/05 14:41:46;;;;;;;1.02;0.45;;;;;;;21.74;36.60;101736.11;1731064;81;26421;-78